This is the latest recevied weather packets stored in our database for station/object KP4FJC. If no packets are shown the sender has not sent any weather packets the latest 10 day(s).
| Time | Temp. | Humidity | Pressure | Rain* | Wind** | Luminosity | Snow |
|---|---|---|---|---|---|---|---|
| 1778076784 | 30.56° C | 67% | 1020.2 hPa | 0 mm | - | 238 W/m² | - |
| 1778076482 | 30.56° C | 67% | 1020 hPa | 0 mm | - | 801 W/m² | - |
| 1778076178 | 30° C | 70% | 1020.1 hPa | 0 mm | - | 791 W/m² | - |
| 1778075875 | 30° C | 71% | 1020.1 hPa | 0 mm | - | 212 W/m² | - |
| 1778075571 | 30° C | 71% | 1020.1 hPa | 0 mm | - | 747 W/m² | - |
| 1778075269 | 29.44° C | 73% | 1020.3 hPa | 0 mm | - | 795 W/m² | - |
| 1778074965 | 28.89° C | 75% | 1020 hPa | 0 mm | - | 805 W/m² | - |
| 1778074662 | 28.89° C | 75% | 1020.2 hPa | 0 mm | - | 182 W/m² | - |
| 1778074359 | 30° C | 72% | 1020.3 hPa | 0 mm | - | 234 W/m² | - |
| 1778074055 | 30° C | 70% | 1020 hPa | 0 mm | - | 287 W/m² | - |
| 1778073753 | 29.44° C | 71% | 1020.2 hPa | 0 mm | - | 705 W/m² | - |
| 1778073451 | 29.44° C | 71% | 1020.2 hPa | 0 mm | - | 708 W/m² | - |
| 1778073146 | 29.44° C | 71% | 1020.2 hPa | 0 mm | - | 663 W/m² | - |
| 1778072843 | 28.89° C | 72% | 1020.1 hPa | 0 mm | - | 666 W/m² | - |
| 1778072540 | 28.33° C | 74% | 1020 hPa | 0 mm | - | 536 W/m² | - |
| 1778072239 | 28.33° C | 76% | 1020.1 hPa | 0 mm | - | 263 W/m² | - |
| 1778071936 | 28.33° C | 76% | 1020.2 hPa | 0 mm | - | 257 W/m² | - |
| 1778071634 | 27.78° C | 77% | 1020 hPa | 0 mm | - | 639 W/m² | - |
| 1778071332 | 27.78° C | 77% | 1019.9 hPa | 0 mm | - | 599 W/m² | - |
| 1778071029 | 27.78° C | 77% | 1019.8 hPa | 0 mm | - | 226 W/m² | - |
| 1778070728 | 28.89° C | 77% | 1020.1 hPa | 0 mm | - | 137 W/m² | - |
| 1778070424 | 28.33° C | 77% | 1019.9 hPa | 0 mm | - | 353 W/m² | - |
| 1778070121 | 28.89° C | 76% | 1019.6 hPa | 0 mm | - | 450 W/m² | - |
| 1778069819 | 28.33° C | 77% | 1019.8 hPa | 0 mm | - | 387 W/m² | - |
| 1778069515 | 27.78° C | 80% | 1019.8 hPa | 0 mm | - | 369 W/m² | - |
* Rain latest hour (hover to see other rain measurements)
** Current wind speed in m/s (hover to see current wind gust speed)